Time;durP1;ratioP1;P1;durP2;ratioP2;P2;SDS_P1;SDS_P2;PMS_P1;PMS_P2;Temp;Humidity;BMP_temperature;BMP_pressure;BME280_temperature;BME280_humidity;BME280_pressure;Samples;Min_cycle;Max_cycle;Signal;HPM_P1;HPM_P2
2021/05/04 00:00:23;;;;;;;;;;;12.30;76.40;;;;;;10592441;27;20376;-90
2021/05/04 00:05:24;;;;;;;;;;;12.30;73.90;;;;;;10626537;27;19924;-91
2021/05/04 00:10:25;;;;;;;;;;;12.40;73.40;;;;;;10599928;27;19923;-90
2021/05/04 00:15:27;;;;;;;;;;;12.40;75.80;;;;;;10608982;27;19930;-90
2021/05/04 00:20:28;;;;;;;;;;;12.30;75.40;;;;;;10608222;27;19977;-90
2021/05/04 00:25:30;;;;;;;;;;;12.10;81.80;;;;;;10626407;27;19923;-89
2021/05/04 00:30:31;;;;;;;;;;;12.30;82.40;;;;;;10564606;27;20015;-89
2021/05/04 00:35:32;;;;;;;;;;;12.00;90.00;;;;;;10606353;27;19930;-90
2021/05/04 00:40:34;;;;;;;;;;;11.90;89.60;;;;;;10626001;27;19946;-90
2021/05/04 00:45:35;;;;;;;;;;;11.90;90.10;;;;;;10607540;27;19930;-89
2021/05/04 00:50:37;;;;;;;;;;;11.70;94.50;;;;;;10607417;27;19923;-89
2021/05/04 00:55:39;;;;;;;;;;;11.20;99.00;;;;;;10607311;28;19928;-90
2021/05/04 01:00:41;;;;;;;;;;;10.80;99.80;;;;;;10623278;28;19930;-89
2021/05/04 01:05:42;;;;;;;;;;;10.50;99.90;;;;;;10623480;28;20354;-89
2021/05/04 01:10:44;;;;;;;;;;;10.20;99.90;;;;;;10607033;28;19923;-88
2021/05/04 01:15:45;;;;;;;;;;;9.90;99.90;;;;;;10606811;28;20286;-88
2021/05/04 01:20:48;;;;;;;;;;;10.20;99.90;;;;;;10599853;22;19924;-85
2021/05/04 01:25:49;;;;;;;;;;;9.40;99.90;;;;;;10588604;28;19963;-85
2021/05/04 01:30:50;;;;;;;;;;;9.40;99.90;;;;;;10590086;28;20382;-85
2021/05/04 01:35:52;;;;;;;;;;;9.30;99.90;;;;;;10590566;28;19924;-85
2021/05/04 01:40:53;;;;;;;;;;;9.30;99.90;;;;;;10609173;27;19930;-86
2021/05/04 01:45:54;;;;;;;;;;;9.00;99.90;;;;;;10632581;27;19923;-86
2021/05/04 01:50:56;;;;;;;;;;;9.00;99.90;;;;;;10613456;27;20320;-87
2021/05/04 01:55:57;;;;;;;;;;;9.20;99.90;;;;;;10613037;27;20286;-86
2021/05/04 02:00:58;;;;;;;;;;;9.00;99.90;;;;;;10596795;27;20285;-86
2021/05/04 02:06:00;;;;;;;;;;;8.90;99.90;;;;;;10631790;27;19931;-87
2021/05/04 02:11:02;;;;;;;;;;;8.80;99.90;;;;;;10612830;27;20290;-86
2021/05/04 02:16:04;;;;;;;;;;;8.60;99.90;;;;;;10613185;27;20263;-86
2021/05/04 02:21:05;;;;;;;;;;;8.50;99.90;;;;;;10630591;27;19924;-87
2021/05/04 02:26:07;;;;;;;;;;;8.90;99.90;;;;;;10612207;27;20366;-88
2021/05/04 02:31:08;;;;;;;;;;;8.50;99.90;;;;;;10630515;27;19923;-88
2021/05/04 02:36:10;;;;;;;;;;;8.50;99.90;;;;;;10612593;27;19923;-87
2021/05/04 02:41:11;;;;;;;;;;;8.40;99.90;;;;;;10628731;27;20366;-88
2021/05/04 02:46:13;;;;;;;;;;;8.30;99.90;;;;;;10629282;27;20360;-88
2021/05/04 02:51:14;;;;;;;;;;;8.50;99.90;;;;;;10610574;27;19924;-88
2021/05/04 02:56:15;;;;;;;;;;;8.60;99.90;;;;;;10628454;27;19930;-87
2021/05/04 03:01:17;;;;;;;;;;;8.30;99.90;;;;;;10629680;27;19966;-88
2021/05/04 03:06:19;;;;;;;;;;;8.30;99.90;;;;;;10628303;27;19974;-88
2021/05/04 03:11:20;;;;;;;;;;;8.70;99.90;;;;;;10628037;27;20311;-88
2021/05/04 03:16:21;;;;;;;;;;;8.80;99.90;;;;;;10628500;27;20646;-88
2021/05/04 03:21:24;;;;;;;;;;;8.40;99.90;;;;;;10628002;27;19924;-88
2021/05/04 03:26:25;;;;;;;;;;;8.20;99.90;;;;;;10551213;28;20010;-88
2021/05/04 03:31:26;;;;;;;;;;;9.10;99.90;;;;;;10567903;28;19923;-88
2021/05/04 03:36:28;;;;;;;;;;;8.30;99.90;;;;;;10585735;28;20006;-88
2021/05/04 03:41:29;;;;;;;;;;;8.30;99.90;;;;;;10603215;27;19927;-88
2021/05/04 03:46:31;;;;;;;;;;;8.70;99.90;;;;;;10627025;27;19945;-88
2021/05/04 03:51:32;;;;;;;;;;;8.40;99.90;;;;;;10608785;27;20373;-88
2021/05/04 03:56:33;;;;;;;;;;;8.30;99.90;;;;;;10609031;27;20285;-87
2021/05/04 04:01:36;;;;;;;;;;;8.20;99.90;;;;;;10627297;27;20294;-87
2021/05/04 04:06:37;;;;;;;;;;;8.10;99.90;;;;;;10592025;27;19930;-87
2021/05/04 04:11:39;;;;;;;;;;;8.30;99.90;;;;;;10624802;27;20018;-87
2021/05/04 04:16:40;;;;;;;;;;;9.20;99.90;;;;;;10608176;27;20297;-88
2021/05/04 04:21:41;;;;;;;;;;;8.40;99.90;;;;;;10607476;27;19970;-88
2021/05/04 04:26:43;;;;;;;;;;;8.10;99.90;;;;;;10625981;27;19930;-87
2021/05/04 04:31:44;;;;;;;;;;;8.10;99.90;;;;;;10625396;27;19930;-88
2021/05/04 04:36:46;;;;;;;;;;;8.00;99.90;;;;;;10624089;27;19930;-87
2021/05/04 04:41:47;;;;;;;;;;;8.00;99.90;;;;;;10625469;27;19933;-88
2021/05/04 04:46:51;;;;;;;;;;;8.60;99.90;;;;;;10624887;27;19924;-88
2021/05/04 04:51:53;;;;;;;;;;;8.00;99.90;;;;;;10607335;27;19984;-88
2021/05/04 04:56:54;;;;;;;;;;;8.00;99.90;;;;;;10607192;28;19930;-88
2021/05/04 05:01:55;;;;;;;;;;;8.40;99.90;;;;;;10606704;28;20385;-88
2021/05/04 05:06:57;;;;;;;;;;;8.10;99.90;;;;;;10607160;28;19978;-88
2021/05/04 05:11:58;;;;;;;;;;;8.20;99.90;;;;;;10606889;28;19993;-88
2021/05/04 05:17:03;;;;;;;;;;;8.50;99.90;;;;;;10606958;28;20018;-89
2021/05/04 05:22:05;;;;;;;;;;;8.30;99.90;;;;;;10605780;28;20377;-88
2021/05/04 05:27:07;;;;;;;;;;;8.80;99.90;;;;;;10623816;28;19924;-88
2021/05/04 05:32:08;;;;;;;;;;;8.00;99.90;;;;;;10606806;28;19931;-88
2021/05/04 05:37:10;;;;;;;;;;;8.40;99.90;;;;;;10605963;28;20392;-88
2021/05/04 05:42:15;;;;;;;;;;;8.50;99.90;;;;;;10606344;28;19927;-88
2021/05/04 05:47:17;;;;;;;;;;;8.60;99.90;;;;;;10606126;28;20445;-88
2021/05/04 05:52:19;;;;;;;;;;;8.60;99.90;;;;;;10589868;28;19976;-88
2021/05/04 05:57:20;;;;;;;;;;;8.60;99.90;;;;;;10590143;28;19992;-88
2021/05/04 06:02:22;;;;;;;;;;;8.50;99.90;;;;;;10605370;28;20275;-88
2021/05/04 06:07:23;;;;;;;;;;;8.60;99.90;;;;;;10608230;27;20397;-88
2021/05/04 06:12:24;;;;;;;;;;;8.80;99.90;;;;;;10595951;27;19923;-88
2021/05/04 06:17:26;;;;;;;;;;;8.90;99.90;;;;;;10627019;27;19938;-88
2021/05/04 06:22:27;;;;;;;;;;;8.80;99.90;;;;;;10536568;28;20394;-88
2021/05/04 06:27:28;;;;;;;;;;;9.30;99.90;;;;;;10482455;28;19947;-88
2021/05/04 06:32:30;;;;;;;;;;;9.40;99.90;;;;;;10415726;28;19925;-88
2021/05/04 06:37:31;;;;;;;;;;;8.90;99.90;;;;;;10412421;28;19925;-88
2021/05/04 06:42:33;;;;;;;;;;;9.00;99.90;;;;;;10493553;28;19939;-88
2021/05/04 06:47:34;;;;;;;;;;;9.30;99.90;;;;;;10449969;28;19926;-87
2021/05/04 06:52:36;;;;;;;;;;;9.60;99.90;;;;;;10463448;28;19925;-87
2021/05/04 06:57:38;;;;;;;;;;;9.80;99.90;;;;;;10412443;28;20364;-88
2021/05/04 07:02:39;;;;;;;;;;;9.50;99.90;;;;;;10482065;28;19929;-89
2021/05/04 07:07:40;;;;;;;;;;;9.40;99.90;;;;;;10482213;27;19932;-88
2021/05/04 07:12:42;;;;;;;;;;;10.50;99.90;;;;;;10456417;28;20291;-89
2021/05/04 07:17:43;;;;;;;;;;;8.70;99.90;;;;;;10455701;28;20277;-91
2021/05/04 07:22:46;;;;;;;;;;;8.80;99.90;;;;;;10624953;22;19927;-89
2021/05/04 07:27:47;;;;;;;;;;;9.20;99.90;;;;;;10626973;27;19923;-87
2021/05/04 07:32:49;;;;;;;;;;;11.30;99.90;;;;;;10582757;28;19967;-86
2021/05/04 07:37:51;;;;;;;;;;;10.30;99.90;;;;;;10621802;27;19933;-87
2021/05/04 07:42:52;;;;;;;;;;;9.20;99.90;;;;;;10609952;27;19938;-87
2021/05/04 07:47:56;;;;;;;;;;;9.20;99.90;;;;;;10629237;27;19923;-87
2021/05/04 07:52:58;;;;;;;;;;;9.30;99.90;;;;;;10608856;27;20439;-86
2021/05/04 07:58:00;;;;;;;;;;;9.20;99.90;;;;;;10608975;27;19986;-86
2021/05/04 08:03:01;;;;;;;;;;;9.30;99.90;;;;;;10627542;27;19946;-87
2021/05/04 08:08:03;;;;;;;;;;;9.40;99.90;;;;;;10608500;27;20022;-87
2021/05/04 08:13:04;;;;;;;;;;;9.50;99.90;;;;;;10608706;27;19924;-86
2021/05/04 08:18:11;;;;;;;;;;;9.80;99.90;;;;;;10625449;27;19924;-87
2021/05/04 08:23:13;;;;;;;;;;;10.50;99.90;;;;;;10624689;27;19994;-86
2021/05/04 08:28:14;;;;;;;;;;;12.10;99.90;;;;;;10607549;27;19930;-87
2021/05/04 08:33:16;;;;;;;;;;;11.60;99.90;;;;;;10607788;27;19929;-86
2021/05/04 08:38:17;;;;;;;;;;;11.40;99.90;;;;;;10608298;27;19923;-85
2021/05/04 08:43:22;;;;;;;;;;;11.10;99.90;;;;;;10590427;27;19946;-86
2021/05/04 08:48:24;;;;;;;;;;;10.80;99.90;;;;;;10606575;27;20392;-87
2021/05/04 08:53:26;;;;;;;;;;;10.60;99.90;;;;;;10607340;27;19930;-86
2021/05/04 08:58:27;;;;;;;;;;;10.20;99.90;;;;;;10605839;28;20370;-87
2021/05/04 09:03:49;;;;;;;;;;;9.90;99.90;;;;;;10609786;28;19977;-85
2021/05/04 09:09:03;;;;;;;;;;;9.70;99.90;;;;;;10623446;28;20308;-86
2021/05/04 09:24:44;;;;;;;;;;;11.70;99.90;;;;;;10596056;28;19923;-87
2021/05/04 09:29:57;;;;;;;;;;;11.80;99.90;;;;;;10623172;28;20329;-87
2021/05/04 09:35:11;;;;;;;;;;;11.40;99.90;;;;;;10608710;28;19927;-87
2021/05/04 09:40:21;;;;;;;;;;;10.90;99.90;;;;;;10623023;27;20254;-87
2021/05/04 09:45:29;;;;;;;;;;;12.40;99.90;;;;;;10630759;27;20335;-87
2021/05/04 09:50:46;;;;;;;;;;;11.30;99.90;;;;;;10632450;27;19924;-87
2021/05/04 09:55:59;;;;;;;;;;;11.50;99.90;;;;;;10613528;27;20370;-86
2021/05/04 10:01:00;;;;;;;;;;;11.40;99.90;;;;;;10613373;27;19933;-87
2021/05/04 10:06:03;;;;;;;;;;;10.70;99.90;;;;;;10596354;27;19923;-88
2021/05/04 10:11:06;;;;;;;;;;;9.90;99.90;;;;;;10613357;27;19930;-89
2021/05/04 10:16:08;;;;;;;;;;;9.50;99.90;;;;;;10613993;27;19930;-88
2021/05/04 10:21:09;;;;;;;;;;;9.90;99.90;;;;;;10624519;27;19930;-89
2021/05/04 10:26:15;;;;;;;;;;;11.10;99.90;;;;;;10613732;27;19927;-89
2021/05/04 10:31:17;;;;;;;;;;;10.80;99.90;;;;;;10631385;27;19924;-89
2021/05/04 10:36:35;;;;;;;;;;;12.00;99.90;;;;;;10612433;27;19946;-90
2021/05/04 10:41:58;;;;;;;;;;;12.50;99.90;;;;;;10629635;27;19961;-88
2021/05/04 10:46:59;;;;;;;;;;;10.30;99.90;;;;;;10612794;27;19923;-89
2021/05/04 10:52:03;;;;;;;;;;;9.70;99.90;;;;;;10596175;27;19924;-90
2021/05/04 10:57:04;;;;;;;;;;;10.60;99.90;;;;;;10593349;27;20365;-89
2021/05/04 11:02:08;;;;;;;;;;;10.40;99.90;;;;;;10609894;27;19923;-89
2021/05/04 11:07:11;;;;;;;;;;;11.50;99.90;;;;;;10610451;27;20019;-90
2021/05/04 11:12:32;;;;;;;;;;;12.40;99.90;;;;;;10628610;27;20375;-89
2021/05/04 11:17:41;;;;;;;;;;;11.80;99.90;;;;;;10610611;27;19930;-89
2021/05/04 11:22:42;;;;;;;;;;;10.80;99.90;;;;;;10627530;27;20006;-88
2021/05/04 11:27:55;;;;;;;;;;;10.70;99.90;;;;;;10609762;27;19924;-87
2021/05/04 11:32:56;;;;;;;;;;;10.60;99.90;;;;;;10627003;27;19927;-91
2021/05/04 11:37:59;;;;;;;;;;;10.20;99.90;;;;;;10624213;27;19934;-88
2021/05/04 11:43:02;;;;;;;;;;;9.50;99.90;;;;;;10607001;27;20010;-88
2021/05/04 11:48:06;;;;;;;;;;;9.30;99.90;;;;;;10606454;27;20043;-90
2021/05/04 11:53:16;;;;;;;;;;;9.80;99.90;;;;;;10625475;27;19928;-89
2021/05/04 11:58:18;;;;;;;;;;;10.10;99.90;;;;;;10609248;27;19924;-90
2021/05/04 12:03:19;;;;;;;;;;;11.10;99.90;;;;;;10627031;27;20358;-91
2021/05/04 12:08:21;;;;;;;;;;;11.10;99.90;;;;;;10626919;27;19927;-89
2021/05/04 12:13:23;;;;;;;;;;;10.60;99.90;;;;;;10628540;27;19931;-89
2021/05/04 12:18:28;;;;;;;;;;;10.70;99.90;;;;;;10652820;27;20393;-89
2021/05/04 12:23:31;;;;;;;;;;;10.70;99.90;;;;;;10575824;28;19949;-88
2021/05/04 12:28:33;;;;;;;;;;;12.90;99.90;;;;;;10624977;27;19923;-89
2021/05/04 12:33:37;;;;;;;;;;;12.40;99.90;;;;;;10608805;27;19930;-88
2021/05/04 12:38:52;;;;;;;;;;;11.60;99.90;;;;;;10608214;27;19992;-89
2021/05/04 12:49:16;;;;;;;;;;;10.60;99.90;;;;;;10626795;27;19968;-89
2021/05/04 12:54:19;;;;;;;;;;;10.60;99.90;;;;;;10608692;27;20006;-89
2021/05/04 12:59:27;;;;;;;;;;;11.30;99.90;;;;;;10607247;28;19934;-90
2021/05/04 13:04:38;;;;;;;;;;;11.40;99.90;;;;;;10625827;28;20025;-90
2021/05/04 13:10:02;;;;;;;;;;;11.60;99.90;;;;;;10624939;28;19932;-89
2021/05/04 13:30:58;;;;;;;;;;;11.40;99.80;;;;;;10662210;27;19923;-88
2021/05/04 13:36:07;;;;;;;;;;;11.20;99.90;;;;;;10657777;27;19927;-87
2021/05/04 13:51:50;;;;;;;;;;;11.10;99.90;;;;;;10617427;27;19970;-88
2021/05/04 13:56:51;;;;;;;;;;;11.60;99.90;;;;;;10614986;27;19927;-86
2021/05/04 14:02:01;;;;;;;;;;;11.60;99.40;;;;;;10613821;27;19923;-87
2021/05/04 14:28:23;;;;;;;;;;;9.40;99.90;;;;;;10594105;27;19924;-87
2021/05/04 14:33:25;;;;;;;;;;;10.00;99.90;;;;;;10662837;27;19923;-88
2021/05/04 14:38:44;;;;;;;;;;;10.20;99.90;;;;;;10529978;23;19924;-89
2021/05/04 14:59:42;;;;;;;;;;;10.50;99.90;;;;;;10473362;28;20011;-88
2021/05/04 15:04:46;;;;;;;;;;;10.30;99.90;;;;;;10502308;28;19924;-87
2021/05/04 15:09:47;;;;;;;;;;;10.70;99.90;;;;;;10485670;28;19952;-87
2021/05/04 15:14:51;;;;;;;;;;;10.90;99.90;;;;;;10485041;28;19925;-87
2021/05/04 15:25:13;;;;;;;;;;;10.60;99.90;;;;;;10486607;28;20019;-86
2021/05/04 15:30:14;;;;;;;;;;;9.90;99.90;;;;;;10501878;28;19930;-87
2021/05/04 15:35:15;;;;;;;;;;;9.70;99.90;;;;;;10500184;28;19931;-86
2021/05/04 15:40:17;;;;;;;;;;;9.60;99.90;;;;;;10499899;28;19924;-87
2021/05/04 15:45:19;;;;;;;;;;;9.80;99.90;;;;;;10501539;28;19954;-87
2021/05/04 16:11:13;;;;;;;;;;;8.10;99.90;;;;;;10479449;28;20284;-86
2021/05/04 16:16:16;;;;;;;;;;;8.20;99.90;;;;;;10467507;28;19940;-88
2021/05/04 16:21:25;;;;;;;;;;;8.10;99.90;;;;;;10466872;28;19924;-87
2021/05/04 16:26:43;;;;;;;;;;;9.30;99.90;;;;;;10465170;28;20375;-87
2021/05/04 16:31:45;;;;;;;;;;;9.30;99.90;;;;;;10465979;28;19925;-90
2021/05/04 16:36:46;;;;;;;;;;;10.50;99.90;;;;;;10483803;28;19925;-88
2021/05/04 16:41:47;;;;;;;;;;;10.20;99.90;;;;;;10466771;28;19925;-86
2021/05/04 16:47:22;;;;;;;;;;;9.80;99.90;;;;;;10483097;28;19925;-86
2021/05/04 16:52:17;;;;;;;;;;;9.70;99.90;;;;;;10470221;28;19979;-88
2021/05/04 16:57:20;;;;;;;;;;;9.40;99.90;;;;;;10449243;28;19925;-88
2021/05/04 17:02:22;;;;;;;;;;;9.30;99.90;;;;;;10448189;28;19929;-89
2021/05/04 17:07:29;;;;;;;;;;;9.30;99.90;;;;;;10481462;28;20402;-89
2021/05/04 17:12:31;;;;;;;;;;;9.50;99.90;;;;;;10448920;28;19925;-88
2021/05/04 17:17:32;;;;;;;;;;;10.20;99.90;;;;;;10437221;28;20059;-88
2021/05/04 17:22:34;;;;;;;;;;;8.80;99.90;;;;;;10420971;28;19925;-87
2021/05/04 17:27:38;;;;;;;;;;;8.20;99.90;;;;;;10410467;28;19925;-89
2021/05/04 17:32:39;;;;;;;;;;;8.00;99.90;;;;;;10413441;28;19931;-89
2021/05/04 17:37:40;;;;;;;;;;;8.10;99.90;;;;;;10414189;28;19929;-87
2021/05/04 17:42:42;;;;;;;;;;;8.20;99.90;;;;;;10363070;28;19926;-87
2021/05/04 17:47:43;;;;;;;;;;;8.30;99.90;;;;;;10379417;28;20395;-88
2021/05/04 17:52:46;;;;;;;;;;;8.80;99.90;;;;;;10363086;28;19925;-87
2021/05/04 17:57:47;;;;;;;;;;;8.20;99.90;;;;;;10363201;28;20024;-88
2021/05/04 18:02:52;;;;;;;;;;;8.10;99.90;;;;;;10378539;28;19932;-89
2021/05/04 18:07:55;;;;;;;;;;;8.10;99.90;;;;;;10372707;28;19961;-88
2021/05/04 18:23:31;;;;;;;;;;;7.70;99.90;;;;;;10407202;28;19929;-90
2021/05/04 18:28:34;;;;;;;;;;;7.70;99.90;;;;;;10393161;28;19925;-92
2021/05/04 18:33:37;;;;;;;;;;;7.70;99.90;;;;;;10394021;28;20020;-92
2021/05/04 18:39:11;;;;;;;;;;;7.70;99.90;;;;;;10418532;28;19925;-91
2021/05/04 19:51:36;;;;;;;;;;;6.70;99.90;;;;;;10417195;28;20024;-92
2021/05/04 20:14:58;;;;;;;;;;;7.00;99.90;;;;;;10417254;28;19947;-92
2021/05/04 20:20:04;;;;;;;;;;;7.00;99.90;;;;;;10415857;28;19925;-91
2021/05/04 20:25:05;;;;;;;;;;;6.90;99.90;;;;;;10424338;28;20028;-89
2021/05/04 20:30:07;;;;;;;;;;;6.70;99.90;;;;;;10374158;28;19976;-88
2021/05/04 20:35:13;;;;;;;;;;;6.70;99.90;;;;;;10365604;23;19926;-88
2021/05/04 20:40:14;;;;;;;;;;;6.80;99.90;;;;;;10278559;28;19926;-89
2021/05/04 20:45:16;;;;;;;;;;;7.00;99.90;;;;;;10292553;28;19973;-89
2021/05/04 20:50:18;;;;;;;;;;;6.80;99.90;;;;;;10282112;28;19932;-90
2021/05/04 20:55:19;;;;;;;;;;;6.90;99.90;;;;;;10285678;28;19932;-90
2021/05/04 21:00:21;;;;;;;;;;;8.10;99.90;;;;;;10301455;28;20009;-91
2021/05/04 21:05:22;;;;;;;;;;;7.00;99.90;;;;;;10300989;28;19930;-93
2021/05/04 21:10:54;;;;;;;;;;;7.00;99.90;;;;;;10302032;28;19926;-92
2021/05/04 21:15:54;;;;;;;;;;;7.00;99.90;;;;;;10269884;28;20288;-90
2021/05/04 21:20:57;;;;;;;;;;;7.00;99.90;;;;;;10284092;28;20289;-93
2021/05/04 21:31:00;;;;;;;;;;;7.00;99.90;;;;;;10300665;28;19926;-92
2021/05/04 21:36:11;;;;;;;;;;;7.00;99.90;;;;;;10282929;28;20016;-92
2021/05/04 21:41:16;;;;;;;;;;;7.00;99.90;;;;;;10299751;28;19926;-92
2021/05/04 21:46:32;;;;;;;;;;;8.00;99.90;;;;;;10289065;28;19985;-93
2021/05/04 21:51:34;;;;;;;;;;;6.40;99.90;;;;;;10299595;28;20025;-93
2021/05/04 21:56:35;;;;;;;;;;;6.80;99.90;;;;;;10299471;28;20024;-91
2021/05/04 22:01:36;;;;;;;;;;;6.80;99.90;;;;;;10282877;28;19933;-93
2021/05/04 22:06:38;;;;;;;;;;;7.40;99.90;;;;;;10245559;29;19949;-93
2021/05/04 22:11:44;;;;;;;;;;;6.90;99.90;;;;;;10258145;29;19927;-93
2021/05/04 22:37:57;;;;;;;;;;;6.90;99.90;;;;;;10296426;28;19954;-94
2021/05/04 23:19:50;;;;;;;;;;;6.30;99.90;;;;;;10257665;28;19926;-93
2021/05/04 23:24:51;;;;;;;;;;;6.30;99.90;;;;;;10276657;28;20029;-94
2021/05/04 23:29:52;;;;;;;;;;;6.40;99.90;;;;;;10298580;28;19926;-93
2021/05/04 23:34:54;;;;;;;;;;;6.40;99.90;;;;;;10283676;28;19936;-93
2021/05/04 23:39:55;;;;;;;;;;;6.30;99.90;;;;;;10304579;28;19927;-94
2021/05/04 23:44:56;;;;;;;;;;;5.50;99.90;;;;;;10296755;28;20037;-93
2021/05/04 23:49:57;;;;;;;;;;;7.30;99.90;;;;;;10296042;28;19932;-93
2021/05/04 23:54:59;;;;;;;;;;;8.10;99.90;;;;;;10257415;28;19926;-92
